createdAt,value
2019-05-02T00:00:15.637Z,8.75
2019-05-02T00:03:11.778Z,8.98
2019-05-02T00:06:09.295Z,8.40
2019-05-02T00:09:09.123Z,8.33
2019-05-02T00:12:02.438Z,9.40
2019-05-02T00:15:02.121Z,8.98
2019-05-02T00:17:56.777Z,8.90
2019-05-02T00:20:57.182Z,8.70
2019-05-02T00:23:54.132Z,10.30
2019-05-02T00:26:56.031Z,9.20
2019-05-02T00:29:48.147Z,8.83
2019-05-02T00:32:43.691Z,9.23
2019-05-02T00:35:40.916Z,9.63
2019-05-02T00:38:38.338Z,9.63
2019-05-02T00:41:38.441Z,10.28
2019-05-02T00:44:31.594Z,11.00
2019-05-02T00:47:34.809Z,10.10
2019-05-02T00:50:31.017Z,10.32
2019-05-02T00:53:27.200Z,9.40
2019-05-02T00:56:23.560Z,8.90
2019-05-02T00:59:22.135Z,8.78
2019-05-02T01:02:35.856Z,9.13
2019-05-02T01:05:33.890Z,8.65
2019-05-02T01:08:30.941Z,9.70
2019-05-02T01:11:28.330Z,9.13
2019-05-02T01:14:27.121Z,9.78
2019-05-02T01:17:19.502Z,10.30
2019-05-02T01:20:16.157Z,10.70
2019-05-02T01:23:13.256Z,10.55
2019-05-02T01:26:10.849Z,10.72
2019-05-02T01:29:32.052Z,10.53
2019-05-02T01:32:47.359Z,10.55
2019-05-02T01:36:06.382Z,11.38
2019-05-02T01:39:02.983Z,11.28
2019-05-02T01:41:59.964Z,12.40
2019-05-02T01:44:56.319Z,12.28
2019-05-02T01:47:53.466Z,13.08
2019-05-02T01:50:49.744Z,11.78
2019-05-02T01:53:46.489Z,12.10
2019-05-02T01:56:42.536Z,11.83
2019-05-02T01:59:39.173Z,11.93
2019-05-02T02:02:35.965Z,11.78
2019-05-02T02:05:33.416Z,10.65
2019-05-02T02:08:32.472Z,11.18
2019-05-02T02:11:28.237Z,12.00
2019-05-02T02:14:23.290Z,12.10
2019-05-02T02:17:19.286Z,10.55
2019-05-02T02:20:16.522Z,11.38
2019-05-02T02:23:38.174Z,16.97
2019-05-02T02:26:34.787Z,11.00
2019-05-02T02:29:31.881Z,10.63
2019-05-02T02:32:28.704Z,10.58
2019-05-02T02:35:24.216Z,9.08
2019-05-02T02:38:26.809Z,9.85
2019-05-02T02:41:24.013Z,8.93
2019-05-02T02:44:45.681Z,8.00
2019-05-02T02:47:41.919Z,8.88
2019-05-02T02:50:43.183Z,8.85
2019-05-02T02:53:35.199Z,9.48
2019-05-02T02:56:34.355Z,10.58
2019-05-02T02:59:28.871Z,10.55
2019-05-02T03:02:25.483Z,10.10
2019-05-02T03:05:25.872Z,9.38
2019-05-02T03:08:19.341Z,10.23
2019-05-02T03:11:22.822Z,9.45
2019-05-02T03:14:18.991Z,8.60
2019-05-02T03:17:20.558Z,9.78
2019-05-02T03:20:12.969Z,9.90
2019-05-02T03:23:15.250Z,8.10
2019-05-02T03:26:14.281Z,8.50
2019-05-02T03:29:05.663Z,9.45
2019-05-02T03:32:13.457Z,7.30
2019-05-02T03:34:58.744Z,8.93
2019-05-02T03:37:55.723Z,9.08
2019-05-02T03:40:51.988Z,6.92
2019-05-02T03:43:49.073Z,7.03
2019-05-02T03:46:46.246Z,9.55
2019-05-02T03:49:48.972Z,7.87
2019-05-02T03:52:43.491Z,9.55
2019-05-02T03:55:37.395Z,10.13
2019-05-02T03:58:34.229Z,9.78
2019-05-02T04:01:34.663Z,9.50
2019-05-02T04:04:31.697Z,8.30
2019-05-02T04:07:39.931Z,8.65
2019-05-02T04:10:59.429Z,10.43
2019-05-02T04:13:54.920Z,9.13
2019-05-02T04:16:55.126Z,9.20
2019-05-02T04:19:49.259Z,8.23
2019-05-02T04:22:50.671Z,8.33
2019-05-02T04:25:50.738Z,8.50
2019-05-02T04:28:51.681Z,8.58
2019-05-02T04:31:47.799Z,8.35
2019-05-02T04:34:49.200Z,8.38
2019-05-02T04:37:44.938Z,9.48
2019-05-02T04:40:46.458Z,8.75
2019-05-02T04:43:40.544Z,8.23
2019-05-02T04:46:38.763Z,8.78
2019-05-02T04:49:39.188Z,8.78
2019-05-02T04:52:48.292Z,9.88
2019-05-02T04:55:38.182Z,9.85
2019-05-02T04:58:40.468Z,7.95
2019-05-02T05:01:46.292Z,8.60
2019-05-02T05:04:42.578Z,9.25
2019-05-02T05:07:43.505Z,7.90
2019-05-02T05:10:39.943Z,7.70
2019-05-02T05:13:32.332Z,8.08
2019-05-02T05:16:28.685Z,7.10
2019-05-02T05:19:31.493Z,6.78
2019-05-02T05:22:23.502Z,7.75
2019-05-02T05:25:24.832Z,6.70
2019-05-02T05:28:24.820Z,7.50
2019-05-02T05:31:29.153Z,7.62
2019-05-02T05:34:28.548Z,8.03
2019-05-02T05:37:19.913Z,14.05
2019-05-02T05:40:28.201Z,7.15
2019-05-02T05:43:24.131Z,6.65
2019-05-02T05:46:33.524Z,7.05
2019-05-02T05:49:28.227Z,8.68
2019-05-02T05:52:38.702Z,7.30
2019-05-02T05:55:39.176Z,6.72
2019-05-02T05:58:52.678Z,7.08
2019-05-02T06:01:51.627Z,7.40
2019-05-02T06:04:50.187Z,7.87
2019-05-02T06:07:47.442Z,6.60
2019-05-02T06:10:45.637Z,8.20
2019-05-02T06:13:48.819Z,7.92
2019-05-02T06:16:41.143Z,6.20
2019-05-02T06:19:41.566Z,10.15
2019-05-02T06:22:40.502Z,7.58
2019-05-02T06:25:36.985Z,6.70
2019-05-02T06:28:43.257Z,8.05
2019-05-02T06:31:43.024Z,8.23
2019-05-02T06:34:46.470Z,10.05
2019-05-02T06:37:40.788Z,7.65
2019-05-02T06:40:39.423Z,7.67
2019-05-02T06:43:35.920Z,7.53
2019-05-02T06:46:33.062Z,7.47
2019-05-02T06:49:44.097Z,8.33
2019-05-02T06:52:41.204Z,8.25
2019-05-02T06:55:47.601Z,6.53
2019-05-02T06:58:44.911Z,7.20
2019-05-02T07:01:43.753Z,6.50
2019-05-02T07:04:46.054Z,6.60
2019-05-02T07:07:48.639Z,6.05
2019-05-02T07:11:06.955Z,6.50
2019-05-02T07:14:13.111Z,7.50
2019-05-02T07:17:31.404Z,6.42
2019-05-02T07:20:25.139Z,7.40
2019-05-02T07:23:39.203Z,6.15
2019-05-02T07:26:43.576Z,5.60
2019-05-02T07:29:59.581Z,5.83
2019-05-02T07:32:56.389Z,6.12
2019-05-02T07:36:00.117Z,7.55
2019-05-02T07:39:04.879Z,7.28
2019-05-02T07:42:06.066Z,5.95
2019-05-02T07:45:09.463Z,6.15
2019-05-02T07:48:06.796Z,6.10
2019-05-02T07:51:04.410Z,5.92
2019-05-02T07:54:03.491Z,6.12
2019-05-02T07:57:02.648Z,6.33
2019-05-02T08:00:00.598Z,6.58
2019-05-02T08:02:58.046Z,6.92
2019-05-02T08:06:01.616Z,6.47
2019-05-02T08:09:01.528Z,6.33
2019-05-02T08:11:57.475Z,6.15
2019-05-02T08:14:56.500Z,5.83
2019-05-02T08:17:55.230Z,5.87
2019-05-02T08:20:55.969Z,6.30
2019-05-02T08:23:57.130Z,6.17
2019-05-02T08:27:36.749Z,6.08
2019-05-02T08:30:40.545Z,6.53
2019-05-02T08:33:35.940Z,6.12
2019-05-02T08:36:36.065Z,6.10
2019-05-02T08:39:38.647Z,6.47
2019-05-02T08:42:36.098Z,6.17
2019-05-02T08:45:38.205Z,6.92
2019-05-02T08:48:36.429Z,7.65
2019-05-02T08:51:36.196Z,5.85
2019-05-02T08:54:35.366Z,7.78
2019-05-02T08:57:34.556Z,6.97
2019-05-02T09:00:39.938Z,6.15
2019-05-02T09:03:54.788Z,6.78
2019-05-02T09:06:35.326Z,7.20
2019-05-02T09:09:35.697Z,6.40
2019-05-02T09:12:36.864Z,6.85
2019-05-02T09:15:35.234Z,6.58
2019-05-02T09:19:00.170Z,8.58
2019-05-02T09:22:13.159Z,7.00
2019-05-02T09:25:06.730Z,6.87
2019-05-02T09:28:03.355Z,7.00
2019-05-02T09:31:06.695Z,7.42
2019-05-02T09:34:22.880Z,7.30
2019-05-02T09:37:28.332Z,6.47
2019-05-02T09:40:33.478Z,7.80
2019-05-02T09:43:39.060Z,6.95
2019-05-02T09:46:35.257Z,7.03
2019-05-02T09:49:33.199Z,7.47
2019-05-02T09:56:04.650Z,7.08
2019-05-02T09:59:23.266Z,7.15
2019-05-02T10:02:04.938Z,7.60
2019-05-02T10:05:07.592Z,7.83
2019-05-02T10:08:11.006Z,7.20
2019-05-02T10:11:08.812Z,7.20
2019-05-02T10:14:07.323Z,7.40
2019-05-02T10:17:07.425Z,7.92
2019-05-02T10:20:16.718Z,8.35
2019-05-02T10:23:25.760Z,7.67
2019-05-02T10:26:47.854Z,8.25
2019-05-02T10:29:44.655Z,8.20
2019-05-02T10:32:47.149Z,7.62
2019-05-02T10:35:44.428Z,7.33
2019-05-02T10:38:42.832Z,9.53
2019-05-02T10:41:41.846Z,7.83
2019-05-02T10:44:36.603Z,7.25
2019-05-02T10:47:36.165Z,7.87
2019-05-02T10:50:35.122Z,7.40
2019-05-02T10:54:14.033Z,7.28
2019-05-02T10:57:12.566Z,7.28
2019-05-02T11:00:08.321Z,6.78
2019-05-02T11:03:22.504Z,6.87
2019-05-02T11:06:18.382Z,8.05
2019-05-02T11:09:21.463Z,6.92
2019-05-02T11:12:46.846Z,6.83
2019-05-02T11:19:14.606Z,6.70
2019-05-02T11:22:12.198Z,7.00
2019-05-02T11:25:11.994Z,6.33
2019-05-02T11:28:09.716Z,6.40
2019-05-02T11:31:15.738Z,6.20
2019-05-02T11:34:14.199Z,6.78
2019-05-02T11:37:12.145Z,6.00
2019-05-02T11:40:12.574Z,6.25
2019-05-02T11:43:08.349Z,6.53
2019-05-02T11:46:13.115Z,6.97
2019-05-02T11:49:12.090Z,6.12
2019-05-02T11:52:06.513Z,6.37
2019-05-02T11:55:02.322Z,7.17
2019-05-02T11:58:00.983Z,6.40
2019-05-02T12:00:55.965Z,8.15
2019-05-02T12:03:55.943Z,6.90
2019-05-02T12:07:01.116Z,6.92
2019-05-02T12:09:55.162Z,7.58
2019-05-02T12:12:47.586Z,6.80
2019-05-02T12:15:44.289Z,6.70
2019-05-02T12:18:38.803Z,7.55
2019-05-02T12:21:39.230Z,7.28
2019-05-02T12:24:36.350Z,8.85
2019-05-02T12:27:31.749Z,7.97
2019-05-02T12:30:28.980Z,8.70
2019-05-02T12:33:36.220Z,7.90
2019-05-02T12:36:37.215Z,8.15
2019-05-02T12:39:37.207Z,7.70
2019-05-02T12:42:36.127Z,9.08
2019-05-02T12:45:33.740Z,9.20
2019-05-02T12:48:32.689Z,8.55
2019-05-02T12:51:29.019Z,8.40
2019-05-02T12:54:25.540Z,6.95
2019-05-02T12:57:24.641Z,9.38
2019-05-02T13:00:22.463Z,8.35
2019-05-02T13:03:37.664Z,8.60
2019-05-02T13:06:42.358Z,8.60
2019-05-02T13:09:41.890Z,9.85
2019-05-02T13:12:39.358Z,9.93
2019-05-02T13:15:36.354Z,8.13
2019-05-02T13:18:37.148Z,10.38
2019-05-02T13:21:41.760Z,12.78
2019-05-02T13:24:39.794Z,13.95
2019-05-02T13:27:43.554Z,13.18
2019-05-02T13:30:56.743Z,11.95
2019-05-02T13:34:06.477Z,25.20
2019-05-02T13:36:59.474Z,15.63
2019-05-02T13:40:18.941Z,13.90
2019-05-02T13:43:14.978Z,17.10
2019-05-02T13:46:15.793Z,15.78
2019-05-02T13:49:12.753Z,17.67
2019-05-02T13:52:11.806Z,15.58
2019-05-02T13:55:11.838Z,12.90
2019-05-02T13:58:11.670Z,11.05
2019-05-02T14:01:11.762Z,10.85
2019-05-02T14:04:10.225Z,10.82
2019-05-02T14:07:07.734Z,11.95
2019-05-02T14:10:06.063Z,11.48
2019-05-02T14:13:03.353Z,10.18
2019-05-02T14:16:02.261Z,10.45
2019-05-02T14:18:58.159Z,10.45
2019-05-02T14:21:54.538Z,10.58
2019-05-02T14:24:51.905Z,10.58
2019-05-02T14:27:51.452Z,10.90
2019-05-02T14:30:46.308Z,10.43
2019-05-02T14:33:42.333Z,13.10
2019-05-02T14:36:42.195Z,9.60
2019-05-02T14:39:36.733Z,10.72
2019-05-02T14:42:33.043Z,10.78
2019-05-02T14:45:31.552Z,10.00
2019-05-02T14:48:26.654Z,9.63
2019-05-02T14:51:27.640Z,9.60
2019-05-02T14:54:20.083Z,10.60
2019-05-02T14:57:22.942Z,10.58
2019-05-02T15:00:17.003Z,9.73
2019-05-02T15:03:12.901Z,10.58
2019-05-02T15:06:11.705Z,9.88
2019-05-02T15:09:07.925Z,10.00
2019-05-02T15:12:13.923Z,11.55
2019-05-02T15:15:04.927Z,11.55
2019-05-02T15:18:02.736Z,11.33
2019-05-02T15:20:58.031Z,10.15
2019-05-02T15:23:57.939Z,11.48
2019-05-02T15:26:52.723Z,11.40
2019-05-02T15:29:52.928Z,10.63
2019-05-02T15:33:07.968Z,11.20
2019-05-02T15:36:07.501Z,11.60
2019-05-02T15:42:01.766Z,11.85
2019-05-02T15:45:02.053Z,11.53
2019-05-02T15:47:56.565Z,11.73
2019-05-02T15:50:55.291Z,11.83
2019-05-02T15:54:08.793Z,11.93
2019-05-02T15:57:05.859Z,12.35
2019-05-02T16:00:04.567Z,12.58
2019-05-02T16:03:04.841Z,14.45
2019-05-02T16:06:04.443Z,13.95
2019-05-02T16:09:03.621Z,13.45
2019-05-02T16:12:02.934Z,12.80
2019-05-02T16:14:59.836Z,12.60
2019-05-02T16:18:03.957Z,13.03
2019-05-02T16:21:07.492Z,13.53
2019-05-02T16:24:29.125Z,13.20
2019-05-02T16:27:47.239Z,12.55
2019-05-02T16:30:47.579Z,12.82
2019-05-02T16:33:44.521Z,13.70
2019-05-02T16:36:43.442Z,13.83
2019-05-02T16:39:42.622Z,14.38
2019-05-02T16:42:41.786Z,13.80
2019-05-02T16:45:37.282Z,14.60
2019-05-02T16:48:37.846Z,13.68
2019-05-02T16:51:34.557Z,13.43
2019-05-02T16:54:34.553Z,13.95
2019-05-02T16:57:29.824Z,13.83
2019-05-02T17:00:28.259Z,14.03
2019-05-02T17:03:26.592Z,15.13
2019-05-02T17:06:25.880Z,14.15
2019-05-02T17:09:38.660Z,13.48
2019-05-02T17:12:35.031Z,14.18
2019-05-02T17:15:36.129Z,14.20
2019-05-02T17:18:34.666Z,13.80
2019-05-02T17:21:35.077Z,14.50
2019-05-02T17:24:28.752Z,14.07
2019-05-02T17:27:24.994Z,14.98
2019-05-02T17:30:22.510Z,15.35
2019-05-02T17:33:18.207Z,14.63
2019-05-02T17:36:15.396Z,14.50
2019-05-02T17:39:12.547Z,14.83
2019-05-02T17:42:07.994Z,14.18
2019-05-02T17:45:04.047Z,15.68
2019-05-02T17:48:00.531Z,14.75
2019-05-02T17:51:13.329Z,14.63
2019-05-02T17:54:09.677Z,14.47
2019-05-02T17:57:05.466Z,14.23
2019-05-02T18:00:02.829Z,14.73
2019-05-02T18:02:58.713Z,14.53
2019-05-02T18:05:54.780Z,14.50
2019-05-02T18:08:55.124Z,15.72
2019-05-02T18:11:47.620Z,14.45
2019-05-02T18:14:43.628Z,14.18
2019-05-02T18:17:39.620Z,14.65
2019-05-02T18:20:37.253Z,15.98
2019-05-02T18:23:34.939Z,15.78
2019-05-02T18:26:33.081Z,15.70
2019-05-02T18:29:30.986Z,15.03
2019-05-02T18:32:30.054Z,15.30
2019-05-02T18:35:27.599Z,14.73
2019-05-02T18:38:26.271Z,14.80
2019-05-02T18:41:22.778Z,14.23
2019-05-02T18:44:21.764Z,15.13
2019-05-02T18:47:20.320Z,15.15
2019-05-02T18:50:37.016Z,15.20
2019-05-02T18:53:32.709Z,15.43
2019-05-02T18:56:28.475Z,15.13
2019-05-02T18:59:27.123Z,15.25
2019-05-02T19:02:26.447Z,15.15
2019-05-02T19:05:22.855Z,15.53
2019-05-02T19:08:29.008Z,15.45
2019-05-02T19:11:19.444Z,14.90
2019-05-02T19:14:22.258Z,14.68
2019-05-02T19:17:14.441Z,15.05
2019-05-02T19:20:15.792Z,14.68
2019-05-02T19:23:12.433Z,14.18
2019-05-02T19:26:15.399Z,13.58
2019-05-02T19:29:29.103Z,13.93
2019-05-02T19:32:28.310Z,12.68
2019-05-02T19:35:21.994Z,12.93
2019-05-02T19:38:22.637Z,11.63
2019-05-02T19:41:16.595Z,11.63
2019-05-02T19:44:15.308Z,11.57
2019-05-02T19:47:15.776Z,11.25
2019-05-02T19:50:07.372Z,12.55
2019-05-02T19:53:04.406Z,11.55
2019-05-02T19:56:01.305Z,11.30
2019-05-02T19:58:55.858Z,11.57
2019-05-02T20:01:56.862Z,10.75
2019-05-02T20:04:51.999Z,11.45
2019-05-02T20:07:48.114Z,10.72
2019-05-02T20:10:49.430Z,10.80
2019-05-02T20:13:41.083Z,10.45
2019-05-02T20:16:44.192Z,10.43
2019-05-02T20:19:38.386Z,10.48
2019-05-02T20:22:36.258Z,10.63
2019-05-02T20:25:37.354Z,10.32
2019-05-02T20:28:28.045Z,11.00
2019-05-02T20:31:24.139Z,10.75
2019-05-02T20:34:19.867Z,10.45
2019-05-02T20:37:16.689Z,10.48
2019-05-02T20:40:16.431Z,11.50
2019-05-02T20:43:14.210Z,9.83
2019-05-02T20:46:12.153Z,10.55
2019-05-02T20:49:09.246Z,10.10
2019-05-02T20:52:06.783Z,10.03
2019-05-02T20:55:03.935Z,10.15
2019-05-02T20:58:02.150Z,10.38
2019-05-02T21:01:07.720Z,10.28
2019-05-02T21:03:55.677Z,9.80
2019-05-02T21:07:01.986Z,9.73
2019-05-02T21:10:05.611Z,9.43
2019-05-02T21:13:02.056Z,10.38
2019-05-02T21:15:57.825Z,9.70
2019-05-02T21:18:54.617Z,9.33
2019-05-02T21:21:52.824Z,10.05
2019-05-02T21:24:48.147Z,9.60
2019-05-02T21:27:47.458Z,9.28
2019-05-02T21:30:44.349Z,9.50
2019-05-02T21:33:42.796Z,9.50
2019-05-02T21:36:39.610Z,9.38
2019-05-02T21:39:36.839Z,9.28
2019-05-02T21:42:33.703Z,9.53
2019-05-02T21:45:31.629Z,9.48
2019-05-02T21:48:28.176Z,9.25
2019-05-02T21:51:42.618Z,9.48
2019-05-02T21:54:49.262Z,10.00
2019-05-02T21:57:46.910Z,9.90
2019-05-02T22:01:12.903Z,9.28
2019-05-02T22:04:12.910Z,9.70
2019-05-02T22:07:08.021Z,9.95
2019-05-02T22:10:05.856Z,9.90
2019-05-02T22:13:03.626Z,9.78
2019-05-02T22:16:02.300Z,9.68
2019-05-02T22:18:59.404Z,9.53
2019-05-02T22:21:57.370Z,9.68
2019-05-02T22:24:55.101Z,9.65
2019-05-02T22:27:54.100Z,18.25
2019-05-02T22:30:52.172Z,10.98
2019-05-02T22:33:48.852Z,10.68
2019-05-02T22:36:46.166Z,9.98
2019-05-02T22:39:49.716Z,16.25
2019-05-02T22:42:47.200Z,10.00
2019-05-02T22:45:44.923Z,10.38
2019-05-02T22:48:42.969Z,10.08
2019-05-02T22:51:42.623Z,11.57
2019-05-02T22:54:39.170Z,10.58
2019-05-02T22:57:36.415Z,10.13
2019-05-02T23:00:32.641Z,10.68
2019-05-02T23:03:28.172Z,10.35
2019-05-02T23:06:24.893Z,10.40
2019-05-02T23:09:22.058Z,10.80
2019-05-02T23:12:19.187Z,10.53
2019-05-02T23:15:18.170Z,10.55
2019-05-02T23:18:16.137Z,10.53
2019-05-02T23:21:13.208Z,10.78
2019-05-02T23:24:39.097Z,11.65
2019-05-02T23:27:45.482Z,11.12
2019-05-02T23:30:43.447Z,11.50
2019-05-02T23:33:56.815Z,11.75
2019-05-02T23:36:55.063Z,11.45
2019-05-02T23:39:52.286Z,13.10
2019-05-02T23:42:49.119Z,12.05
2019-05-02T23:45:46.291Z,13.08
2019-05-02T23:48:43.145Z,11.83
2019-05-02T23:51:39.770Z,12.37
2019-05-02T23:54:49.267Z,13.25
2019-05-02T23:57:33.784Z,12.00
